sensor_id;sensor_type;location;lat;lon;timestamp;pressure;altitude;pressure_sealevel;temperature
78859;BMP280;68210;52.032;4.634;2023-07-13T00:01:25;101205.13;;;20.88
78859;BMP280;68210;52.032;4.634;2023-07-13T00:03:25;101196.66;;;21.05
78859;BMP280;68210;52.032;4.634;2023-07-13T00:05:26;101193.81;;;20.76
78859;BMP280;68210;52.032;4.634;2023-07-13T00:07:27;101189.44;;;20.82
78859;BMP280;68210;52.032;4.634;2023-07-13T00:09:28;101186.72;;;20.78
78859;BMP280;68210;52.032;4.634;2023-07-13T00:11:28;101199.00;;;20.71
78859;BMP280;68210;52.032;4.634;2023-07-13T00:13:30;101195.88;;;20.69
78859;BMP280;68210;52.032;4.634;2023-07-13T00:15:30;101192.53;;;20.87
78859;BMP280;68210;52.032;4.634;2023-07-13T00:17:32;101193.13;;;20.69
78859;BMP280;68210;52.032;4.634;2023-07-13T00:19:32;101198.50;;;20.82
78859;BMP280;68210;52.032;4.634;2023-07-13T00:21:32;101195.81;;;20.75
78859;BMP280;68210;52.032;4.634;2023-07-13T00:23:37;101192.59;;;20.80
78859;BMP280;68210;52.032;4.634;2023-07-13T00:25:38;101195.28;;;20.87
78859;BMP280;68210;52.032;4.634;2023-07-13T00:27:38;101198.84;;;20.84
78859;BMP280;68210;52.032;4.634;2023-07-13T00:29:39;101194.06;;;20.92
78859;BMP280;68210;52.032;4.634;2023-07-13T00:31:39;101202.97;;;21.06
78859;BMP280;68210;52.032;4.634;2023-07-13T00:33:41;101207.31;;;21.07
78859;BMP280;68210;52.032;4.634;2023-07-13T00:35:42;101199.38;;;21.12
78859;BMP280;68210;52.032;4.634;2023-07-13T00:37:43;101210.78;;;21.11
78859;BMP280;68210;52.032;4.634;2023-07-13T00:39:44;101201.00;;;21.06
78859;BMP280;68210;52.032;4.634;2023-07-13T00:41:45;101201.41;;;21.05
78859;BMP280;68210;52.032;4.634;2023-07-13T00:43:45;101196.50;;;21.23
78859;BMP280;68210;52.032;4.634;2023-07-13T00:47:46;101185.78;;;21.28
78859;BMP280;68210;52.032;4.634;2023-07-13T00:49:46;101195.22;;;21.31
78859;BMP280;68210;52.032;4.634;2023-07-13T00:51:50;101194.09;;;21.25
78859;BMP280;68210;52.032;4.634;2023-07-13T00:53:53;101203.94;;;21.26
78859;BMP280;68210;52.032;4.634;2023-07-13T00:55:54;101194.56;;;21.16
78859;BMP280;68210;52.032;4.634;2023-07-13T00:57:55;101198.44;;;21.26
78859;BMP280;68210;52.032;4.634;2023-07-13T00:59:59;101208.69;;;21.22
78859;BMP280;68210;52.032;4.634;2023-07-13T01:02:06;101210.16;;;21.36
78859;BMP280;68210;52.032;4.634;2023-07-13T01:04:07;101198.31;;;21.32
78859;BMP280;68210;52.032;4.634;2023-07-13T01:06:08;101200.06;;;21.20
78859;BMP280;68210;52.032;4.634;2023-07-13T01:08:08;101200.81;;;21.24
78859;BMP280;68210;52.032;4.634;2023-07-13T01:10:10;101206.25;;;21.31
78859;BMP280;68210;52.032;4.634;2023-07-13T01:12:11;101206.56;;;21.39
78859;BMP280;68210;52.032;4.634;2023-07-13T01:14:12;101205.16;;;21.21
78859;BMP280;68210;52.032;4.634;2023-07-13T01:16:29;101200.50;;;20.78
78859;BMP280;68210;52.032;4.634;2023-07-13T01:18:30;101196.56;;;20.79
78859;BMP280;68210;52.032;4.634;2023-07-13T01:20:31;101201.94;;;20.93
78859;BMP280;68210;52.032;4.634;2023-07-13T01:22:36;101198.69;;;21.02
78859;BMP280;68210;52.032;4.634;2023-07-13T01:24:38;101201.03;;;21.03
78859;BMP280;68210;52.032;4.634;2023-07-13T01:26:38;101213.53;;;21.14
78859;BMP280;68210;52.032;4.634;2023-07-13T01:28:39;101210.44;;;21.09
78859;BMP280;68210;52.032;4.634;2023-07-13T01:30:40;101216.06;;;20.95
78859;BMP280;68210;52.032;4.634;2023-07-13T01:32:40;101219.34;;;20.83
78859;BMP280;68210;52.032;4.634;2023-07-13T01:34:42;101220.13;;;20.84
78859;BMP280;68210;52.032;4.634;2023-07-13T01:36:44;101218.63;;;20.79
78859;BMP280;68210;52.032;4.634;2023-07-13T01:38:44;101223.06;;;20.63
78859;BMP280;68210;52.032;4.634;2023-07-13T01:40:45;101225.13;;;20.56
78859;BMP280;68210;52.032;4.634;2023-07-13T01:42:46;101225.84;;;20.60
78859;BMP280;68210;52.032;4.634;2023-07-13T01:44:46;101214.34;;;20.72
78859;BMP280;68210;52.032;4.634;2023-07-13T01:46:47;101225.28;;;20.78
78859;BMP280;68210;52.032;4.634;2023-07-13T01:48:47;101224.56;;;20.74
78859;BMP280;68210;52.032;4.634;2023-07-13T01:50:48;101232.19;;;20.53
78859;BMP280;68210;52.032;4.634;2023-07-13T01:52:48;101232.09;;;20.67
78859;BMP280;68210;52.032;4.634;2023-07-13T01:54:48;101232.69;;;20.88
78859;BMP280;68210;52.032;4.634;2023-07-13T01:56:49;101228.88;;;20.75
78859;BMP280;68210;52.032;4.634;2023-07-13T01:58:49;101236.75;;;20.73
78859;BMP280;68210;52.032;4.634;2023-07-13T02:00:51;101236.75;;;20.73
78859;BMP280;68210;52.032;4.634;2023-07-13T02:02:52;101227.63;;;20.83
78859;BMP280;68210;52.032;4.634;2023-07-13T02:04:52;101234.19;;;20.96
78859;BMP280;68210;52.032;4.634;2023-07-13T02:06:52;101224.81;;;20.90
78859;BMP280;68210;52.032;4.634;2023-07-13T02:08:53;101231.22;;;20.77
78859;BMP280;68210;52.032;4.634;2023-07-13T02:10:53;101235.94;;;20.76
78859;BMP280;68210;52.032;4.634;2023-07-13T02:12:53;101230.53;;;20.66
78859;BMP280;68210;52.032;4.634;2023-07-13T02:14:54;101234.88;;;20.64
78859;BMP280;68210;52.032;4.634;2023-07-13T02:16:54;101244.31;;;20.63
78859;BMP280;68210;52.032;4.634;2023-07-13T02:18:55;101236.00;;;20.70
78859;BMP280;68210;52.032;4.634;2023-07-13T02:20:55;101247.56;;;20.51
78859;BMP280;68210;52.032;4.634;2023-07-13T02:22:56;101232.34;;;20.33
78859;BMP280;68210;52.032;4.634;2023-07-13T02:24:57;101236.56;;;20.44
78859;BMP280;68210;52.032;4.634;2023-07-13T02:26:57;101237.69;;;20.53
78859;BMP280;68210;52.032;4.634;2023-07-13T02:28:57;101234.22;;;20.46
78859;BMP280;68210;52.032;4.634;2023-07-13T02:31:05;101236.16;;;20.49
78859;BMP280;68210;52.032;4.634;2023-07-13T02:33:05;101228.31;;;20.44
78859;BMP280;68210;52.032;4.634;2023-07-13T02:35:06;101234.78;;;20.24
78859;BMP280;68210;52.032;4.634;2023-07-13T02:37:06;101241.06;;;20.24
78859;BMP280;68210;52.032;4.634;2023-07-13T02:39:14;101236.28;;;20.28
78859;BMP280;68210;52.032;4.634;2023-07-13T02:41:15;101229.28;;;20.17
78859;BMP280;68210;52.032;4.634;2023-07-13T02:43:15;101236.38;;;20.14
78859;BMP280;68210;52.032;4.634;2023-07-13T02:45:16;101239.63;;;20.03
78859;BMP280;68210;52.032;4.634;2023-07-13T02:47:16;101233.59;;;20.21
78859;BMP280;68210;52.032;4.634;2023-07-13T02:49:16;101246.22;;;20.12
78859;BMP280;68210;52.032;4.634;2023-07-13T02:51:17;101238.00;;;20.09
78859;BMP280;68210;52.032;4.634;2023-07-13T02:53:17;101240.34;;;20.13
78859;BMP280;68210;52.032;4.634;2023-07-13T02:55:18;101241.25;;;19.90
78859;BMP280;68210;52.032;4.634;2023-07-13T02:57:18;101234.94;;;19.93
78859;BMP280;68210;52.032;4.634;2023-07-13T02:59:18;101237.13;;;20.22
78859;BMP280;68210;52.032;4.634;2023-07-13T03:01:19;101239.84;;;20.25
78859;BMP280;68210;52.032;4.634;2023-07-13T03:03:21;101245.84;;;20.13
78859;BMP280;68210;52.032;4.634;2023-07-13T03:05:21;101245.03;;;20.16
78859;BMP280;68210;52.032;4.634;2023-07-13T03:07:21;101246.25;;;20.09
78859;BMP280;68210;52.032;4.634;2023-07-13T03:09:22;101247.31;;;20.28
78859;BMP280;68210;52.032;4.634;2023-07-13T03:11:22;101247.59;;;20.44
78859;BMP280;68210;52.032;4.634;2023-07-13T03:13:23;101248.00;;;20.42
78859;BMP280;68210;52.032;4.634;2023-07-13T03:15:23;101255.44;;;20.49
78859;BMP280;68210;52.032;4.634;2023-07-13T03:17:24;101249.91;;;20.49
78859;BMP280;68210;52.032;4.634;2023-07-13T03:19:24;101234.50;;;20.62
78859;BMP280;68210;52.032;4.634;2023-07-13T03:21:25;101237.56;;;20.71
78859;BMP280;68210;52.032;4.634;2023-07-13T03:23:25;101237.13;;;20.75
78859;BMP280;68210;52.032;4.634;2023-07-13T03:25:25;101245.31;;;20.86
78859;BMP280;68210;52.032;4.634;2023-07-13T03:27:26;101237.44;;;20.88
78859;BMP280;68210;52.032;4.634;2023-07-13T03:29:26;101237.34;;;20.98
78859;BMP280;68210;52.032;4.634;2023-07-13T03:31:32;101242.25;;;20.77
78859;BMP280;68210;52.032;4.634;2023-07-13T03:33:33;101246.22;;;20.72
78859;BMP280;68210;52.032;4.634;2023-07-13T03:35:35;101241.88;;;20.75
78859;BMP280;68210;52.032;4.634;2023-07-13T03:37:35;101247.78;;;20.73
78859;BMP280;68210;52.032;4.634;2023-07-13T03:39:36;101252.47;;;20.80
78859;BMP280;68210;52.032;4.634;2023-07-13T03:41:37;101247.81;;;20.70
78859;BMP280;68210;52.032;4.634;2023-07-13T03:43:37;101240.75;;;20.69
78859;BMP280;68210;52.032;4.634;2023-07-13T03:45:38;101255.38;;;20.59
78859;BMP280;68210;52.032;4.634;2023-07-13T03:47:38;101261.72;;;20.53
78859;BMP280;68210;52.032;4.634;2023-07-13T03:49:39;101262.94;;;20.41
78859;BMP280;68210;52.032;4.634;2023-07-13T03:51:39;101266.06;;;20.47
78859;BMP280;68210;52.032;4.634;2023-07-13T03:53:42;101262.25;;;20.34
78859;BMP280;68210;52.032;4.634;2023-07-13T03:55:43;101264.88;;;20.48
78859;BMP280;68210;52.032;4.634;2023-07-13T03:57:44;101266.97;;;20.30
78859;BMP280;68210;52.032;4.634;2023-07-13T03:59:44;101258.31;;;20.28
78859;BMP280;68210;52.032;4.634;2023-07-13T04:01:45;101269.34;;;20.32
78859;BMP280;68210;52.032;4.634;2023-07-13T04:03:45;101269.31;;;20.35
78859;BMP280;68210;52.032;4.634;2023-07-13T04:05:46;101274.31;;;20.47
78859;BMP280;68210;52.032;4.634;2023-07-13T04:07:47;101278.06;;;20.23
78859;BMP280;68210;52.032;4.634;2023-07-13T04:09:47;101273.69;;;20.29
78859;BMP280;68210;52.032;4.634;2023-07-13T04:11:47;101274.03;;;20.35
78859;BMP280;68210;52.032;4.634;2023-07-13T04:13:48;101272.44;;;20.34
78859;BMP280;68210;52.032;4.634;2023-07-13T04:15:49;101285.34;;;20.47
78859;BMP280;68210;52.032;4.634;2023-07-13T04:17:49;101278.63;;;20.51
78859;BMP280;68210;52.032;4.634;2023-07-13T04:19:50;101282.59;;;20.47
78859;BMP280;68210;52.032;4.634;2023-07-13T04:21:50;101277.97;;;20.37
78859;BMP280;68210;52.032;4.634;2023-07-13T04:23:51;101279.59;;;20.24
78859;BMP280;68210;52.032;4.634;2023-07-13T04:25:52;101284.25;;;20.38
78859;BMP280;68210;52.032;4.634;2023-07-13T04:27:53;101282.63;;;20.43
78859;BMP280;68210;52.032;4.634;2023-07-13T04:29:53;101281.41;;;20.48
78859;BMP280;68210;52.032;4.634;2023-07-13T04:31:54;101284.50;;;20.60
78859;BMP280;68210;52.032;4.634;2023-07-13T04:33:54;101288.00;;;20.68
78859;BMP280;68210;52.032;4.634;2023-07-13T04:35:55;101293.38;;;20.85
78859;BMP280;68210;52.032;4.634;2023-07-13T04:37:59;101286.19;;;20.94
78859;BMP280;68210;52.032;4.634;2023-07-13T04:39:59;101286.91;;;21.02
78859;BMP280;68210;52.032;4.634;2023-07-13T04:42:00;101295.00;;;20.75
78859;BMP280;68210;52.032;4.634;2023-07-13T04:44:00;101291.75;;;20.87
78859;BMP280;68210;52.032;4.634;2023-07-13T04:46:08;101299.06;;;20.61
78859;BMP280;68210;52.032;4.634;2023-07-13T04:48:09;101298.84;;;20.88
78859;BMP280;68210;52.032;4.634;2023-07-13T04:50:10;101301.19;;;20.93
78859;BMP280;68210;52.032;4.634;2023-07-13T04:52:12;101298.81;;;20.92
78859;BMP280;68210;52.032;4.634;2023-07-13T04:54:12;101302.69;;;21.01
78859;BMP280;68210;52.032;4.634;2023-07-13T04:56:12;101297.91;;;21.05
78859;BMP280;68210;52.032;4.634;2023-07-13T04:58:13;101297.22;;;20.94
78859;BMP280;68210;52.032;4.634;2023-07-13T05:00:14;101307.44;;;20.97
78859;BMP280;68210;52.032;4.634;2023-07-13T05:02:15;101305.84;;;21.00
78859;BMP280;68210;52.032;4.634;2023-07-13T05:04:16;101305.06;;;20.99
78859;BMP280;68210;52.032;4.634;2023-07-13T05:06:16;101297.09;;;21.08
78859;BMP280;68210;52.032;4.634;2023-07-13T05:08:17;101298.88;;;21.25
78859;BMP280;68210;52.032;4.634;2023-07-13T05:10:17;101299.66;;;21.29
78859;BMP280;68210;52.032;4.634;2023-07-13T05:12:18;101305.50;;;21.37
78859;BMP280;68210;52.032;4.634;2023-07-13T05:14:18;101302.91;;;21.57
78859;BMP280;68210;52.032;4.634;2023-07-13T05:16:19;101308.97;;;21.78
78859;BMP280;68210;52.032;4.634;2023-07-13T05:18:19;101305.88;;;21.76
78859;BMP280;68210;52.032;4.634;2023-07-13T05:20:19;101309.19;;;21.93
78859;BMP280;68210;52.032;4.634;2023-07-13T05:22:20;101310.13;;;22.13
78859;BMP280;68210;52.032;4.634;2023-07-13T05:24:20;101308.84;;;22.21
78859;BMP280;68210;52.032;4.634;2023-07-13T05:26:21;101311.50;;;22.28
78859;BMP280;68210;52.032;4.634;2023-07-13T05:28:22;101311.44;;;22.35
78859;BMP280;68210;52.032;4.634;2023-07-13T05:30:22;101320.19;;;22.30
78859;BMP280;68210;52.032;4.634;2023-07-13T05:32:23;101302.41;;;22.31
78859;BMP280;68210;52.032;4.634;2023-07-13T05:34:23;101313.44;;;22.31
78859;BMP280;68210;52.032;4.634;2023-07-13T05:36:23;101302.34;;;22.34
78859;BMP280;68210;52.032;4.634;2023-07-13T05:38:24;101320.03;;;22.40
78859;BMP280;68210;52.032;4.634;2023-07-13T05:40:24;101312.97;;;22.36
78859;BMP280;68210;52.032;4.634;2023-07-13T05:42:25;101323.72;;;22.30
78859;BMP280;68210;52.032;4.634;2023-07-13T05:44:25;101321.19;;;22.13
78859;BMP280;68210;52.032;4.634;2023-07-13T05:46:25;101317.97;;;22.18
78859;BMP280;68210;52.032;4.634;2023-07-13T05:48:26;101326.97;;;21.93
78859;BMP280;68210;52.032;4.634;2023-07-13T05:50:26;101321.81;;;21.94
78859;BMP280;68210;52.032;4.634;2023-07-13T05:52:27;101327.81;;;21.86
78859;BMP280;68210;52.032;4.634;2023-07-13T05:54:27;101331.03;;;21.81
78859;BMP280;68210;52.032;4.634;2023-07-13T05:56:28;101333.44;;;21.79
78859;BMP280;68210;52.032;4.634;2023-07-13T05:58:28;101333.88;;;21.74
78859;BMP280;68210;52.032;4.634;2023-07-13T06:00:28;101337.25;;;21.89
78859;BMP280;68210;52.032;4.634;2023-07-13T06:02:29;101336.41;;;21.92
78859;BMP280;68210;52.032;4.634;2023-07-13T06:04:29;101334.94;;;21.84
78859;BMP280;68210;52.032;4.634;2023-07-13T06:06:30;101345.34;;;21.69
78859;BMP280;68210;52.032;4.634;2023-07-13T06:08:31;101340.63;;;21.70
78859;BMP280;68210;52.032;4.634;2023-07-13T06:10:35;101342.88;;;21.82
78859;BMP280;68210;52.032;4.634;2023-07-13T06:12:35;101352.97;;;21.92
78859;BMP280;68210;52.032;4.634;2023-07-13T06:14:36;101367.06;;;21.67
78859;BMP280;68210;52.032;4.634;2023-07-13T06:16:36;101375.25;;;21.38
78859;BMP280;68210;52.032;4.634;2023-07-13T06:18:37;101373.16;;;21.02
78859;BMP280;68210;52.032;4.634;2023-07-13T06:20:37;101354.88;;;20.75
78859;BMP280;68210;52.032;4.634;2023-07-13T06:22:38;101373.50;;;20.47
78859;BMP280;68210;52.032;4.634;2023-07-13T06:24:38;101377.47;;;20.39
78859;BMP280;68210;52.032;4.634;2023-07-13T06:26:38;101374.00;;;20.25
78859;BMP280;68210;52.032;4.634;2023-07-13T06:28:39;101385.69;;;20.53
78859;BMP280;68210;52.032;4.634;2023-07-13T06:30:40;101377.00;;;20.61
78859;BMP280;68210;52.032;4.634;2023-07-13T06:32:40;101383.22;;;20.75
78859;BMP280;68210;52.032;4.634;2023-07-13T06:34:40;101378.88;;;20.74
78859;BMP280;68210;52.032;4.634;2023-07-13T06:36:41;101381.94;;;20.90
78859;BMP280;68210;52.032;4.634;2023-07-13T06:38:41;101373.19;;;20.99
78859;BMP280;68210;52.032;4.634;2023-07-13T06:40:42;101387.69;;;21.06
78859;BMP280;68210;52.032;4.634;2023-07-13T06:42:42;101380.72;;;20.91
78859;BMP280;68210;52.032;4.634;2023-07-13T06:44:43;101384.69;;;20.87
78859;BMP280;68210;52.032;4.634;2023-07-13T06:46:43;101373.41;;;20.68
78859;BMP280;68210;52.032;4.634;2023-07-13T06:48:43;101378.50;;;20.72
78859;BMP280;68210;52.032;4.634;2023-07-13T06:50:44;101391.16;;;20.60
78859;BMP280;68210;52.032;4.634;2023-07-13T06:52:45;101389.63;;;20.59
78859;BMP280;68210;52.032;4.634;2023-07-13T06:54:45;101390.97;;;20.91
78859;BMP280;68210;52.032;4.634;2023-07-13T06:56:46;101397.09;;;21.15
78859;BMP280;68210;52.032;4.634;2023-07-13T06:58:46;101391.06;;;21.34
78859;BMP280;68210;52.032;4.634;2023-07-13T07:00:50;101394.16;;;21.39
78859;BMP280;68210;52.032;4.634;2023-07-13T07:02:51;101392.22;;;21.36
78859;BMP280;68210;52.032;4.634;2023-07-13T07:04:51;101399.16;;;21.51
78859;BMP280;68210;52.032;4.634;2023-07-13T07:06:52;101389.47;;;21.73
78859;BMP280;68210;52.032;4.634;2023-07-13T07:08:52;101376.41;;;22.13
78859;BMP280;68210;52.032;4.634;2023-07-13T07:10:53;101383.16;;;22.12
78859;BMP280;68210;52.032;4.634;2023-07-13T07:12:54;101377.56;;;22.16
78859;BMP280;68210;52.032;4.634;2023-07-13T07:14:54;101372.03;;;22.19
78859;BMP280;68210;52.032;4.634;2023-07-13T07:16:55;101380.97;;;22.26
78859;BMP280;68210;52.032;4.634;2023-07-13T07:18:55;101388.75;;;22.05
78859;BMP280;68210;52.032;4.634;2023-07-13T07:20:55;101387.19;;;22.01
78859;BMP280;68210;52.032;4.634;2023-07-13T07:22:56;101392.78;;;22.30
78859;BMP280;68210;52.032;4.634;2023-07-13T07:24:57;101383.84;;;22.49
78859;BMP280;68210;52.032;4.634;2023-07-13T07:26:57;101390.25;;;22.72
78859;BMP280;68210;52.032;4.634;2023-07-13T07:28:58;101385.81;;;22.78
78859;BMP280;68210;52.032;4.634;2023-07-13T07:30:58;101395.28;;;22.77
78859;BMP280;68210;52.032;4.634;2023-07-13T07:32:59;101390.47;;;22.85
78859;BMP280;68210;52.032;4.634;2023-07-13T07:34:59;101391.06;;;22.40
78859;BMP280;68210;52.032;4.634;2023-07-13T07:37:00;101398.59;;;22.39
78859;BMP280;68210;52.032;4.634;2023-07-13T07:39:01;101389.69;;;22.55
78859;BMP280;68210;52.032;4.634;2023-07-13T07:41:03;101394.28;;;22.94
78859;BMP280;68210;52.032;4.634;2023-07-13T07:43:04;101394.84;;;23.08
78859;BMP280;68210;52.032;4.634;2023-07-13T07:45:05;101392.31;;;23.17
78859;BMP280;68210;52.032;4.634;2023-07-13T07:47:05;101397.34;;;23.48
78859;BMP280;68210;52.032;4.634;2023-07-13T07:49:07;101396.50;;;23.51
78859;BMP280;68210;52.032;4.634;2023-07-13T07:51:08;101395.47;;;23.64
78859;BMP280;68210;52.032;4.634;2023-07-13T07:53:08;101394.38;;;23.81
78859;BMP280;68210;52.032;4.634;2023-07-13T07:55:10;101390.47;;;23.78
78859;BMP280;68210;52.032;4.634;2023-07-13T07:57:11;101390.19;;;24.11
78859;BMP280;68210;52.032;4.634;2023-07-13T07:59:11;101385.94;;;24.07
78859;BMP280;68210;52.032;4.634;2023-07-13T08:01:11;101390.63;;;23.91
78859;BMP280;68210;52.032;4.634;2023-07-13T08:03:12;101409.47;;;23.77
78859;BMP280;68210;52.032;4.634;2023-07-13T08:05:12;101410.59;;;23.60
78859;BMP280;68210;52.032;4.634;2023-07-13T08:07:12;101416.97;;;23.08
78859;BMP280;68210;52.032;4.634;2023-07-13T08:09:13;101409.44;;;23.09
78859;BMP280;68210;52.032;4.634;2023-07-13T08:11:13;101420.50;;;22.83
78859;BMP280;68210;52.032;4.634;2023-07-13T08:13:13;101404.09;;;22.69
78859;BMP280;68210;52.032;4.634;2023-07-13T08:15:16;101421.94;;;22.64
78859;BMP280;68210;52.032;4.634;2023-07-13T08:17:16;101406.69;;;22.83
78859;BMP280;68210;52.032;4.634;2023-07-13T08:19:17;101415.13;;;23.24
78859;BMP280;68210;52.032;4.634;2023-07-13T08:21:17;101412.72;;;23.49
78859;BMP280;68210;52.032;4.634;2023-07-13T08:23:20;101402.03;;;23.74
78859;BMP280;68210;52.032;4.634;2023-07-13T08:25:20;101408.09;;;24.07
78859;BMP280;68210;52.032;4.634;2023-07-13T08:27:26;101399.44;;;24.43
78859;BMP280;68210;52.032;4.634;2023-07-13T08:29:26;101401.38;;;24.46
78859;BMP280;68210;52.032;4.634;2023-07-13T08:31:27;101395.25;;;24.55
78859;BMP280;68210;52.032;4.634;2023-07-13T08:33:27;101397.78;;;24.84
78859;BMP280;68210;52.032;4.634;2023-07-13T08:35:28;101396.66;;;24.43
78859;BMP280;68210;52.032;4.634;2023-07-13T08:37:28;101402.19;;;24.28
78859;BMP280;68210;52.032;4.634;2023-07-13T08:39:30;101395.06;;;24.27
78859;BMP280;68210;52.032;4.634;2023-07-13T08:41:31;101399.22;;;24.15
78859;BMP280;68210;52.032;4.634;2023-07-13T08:43:35;101407.53;;;23.96
78859;BMP280;68210;52.032;4.634;2023-07-13T08:45:48;101409.44;;;23.57
78859;BMP280;68210;52.032;4.634;2023-07-13T08:47:54;101414.91;;;23.38
78859;BMP280;68210;52.032;4.634;2023-07-13T08:49:55;101414.34;;;23.24
78859;BMP280;68210;52.032;4.634;2023-07-13T08:52:17;101421.38;;;23.06
78859;BMP280;68210;52.032;4.634;2023-07-13T08:54:28;101427.28;;;23.04
78859;BMP280;68210;52.032;4.634;2023-07-13T08:56:30;101434.78;;;22.81
78859;BMP280;68210;52.032;4.634;2023-07-13T08:58:32;101427.19;;;23.11
78859;BMP280;68210;52.032;4.634;2023-07-13T09:00:59;101427.88;;;23.18
78859;BMP280;68210;52.032;4.634;2023-07-13T09:03:02;101427.06;;;22.66
78859;BMP280;68210;52.032;4.634;2023-07-13T09:05:10;101427.31;;;22.45
78859;BMP280;68210;52.032;4.634;2023-07-13T09:09:44;101435.28;;;22.40
78859;BMP280;68210;52.032;4.634;2023-07-13T09:11:56;101422.94;;;22.48
78859;BMP280;68210;52.032;4.634;2023-07-13T09:16:14;101424.81;;;22.87
78859;BMP280;68210;52.032;4.634;2023-07-13T09:18:35;101420.44;;;23.38
78859;BMP280;68210;52.032;4.634;2023-07-13T09:21:02;101433.63;;;23.05
78859;BMP280;68210;52.032;4.634;2023-07-13T09:23:09;101435.66;;;23.27
78859;BMP280;68210;52.032;4.634;2023-07-13T09:27:21;101439.47;;;23.10
78859;BMP280;68210;52.032;4.634;2023-07-13T09:29:27;101440.31;;;22.81
78859;BMP280;68210;52.032;4.634;2023-07-13T09:31:42;101447.63;;;22.61
78859;BMP280;68210;52.032;4.634;2023-07-13T09:33:43;101443.69;;;22.62
78859;BMP280;68210;52.032;4.634;2023-07-13T09:35:45;101443.13;;;22.45
78859;BMP280;68210;52.032;4.634;2023-07-13T09:37:46;101455.75;;;22.46
78859;BMP280;68210;52.032;4.634;2023-07-13T09:39:48;101450.84;;;22.60
78859;BMP280;68210;52.032;4.634;2023-07-13T09:44:15;101449.00;;;22.17
78859;BMP280;68210;52.032;4.634;2023-07-13T09:46:22;101453.75;;;22.13
78859;BMP280;68210;52.032;4.634;2023-07-13T09:48:22;101473.78;;;22.24
78859;BMP280;68210;52.032;4.634;2023-07-13T09:50:24;101456.91;;;22.15
78859;BMP280;68210;52.032;4.634;2023-07-13T09:52:26;101462.19;;;22.36
78859;BMP280;68210;52.032;4.634;2023-07-13T09:54:27;101470.03;;;22.41
78859;BMP280;68210;52.032;4.634;2023-07-13T09:56:29;101460.34;;;22.59
78859;BMP280;68210;52.032;4.634;2023-07-13T09:58:30;101474.56;;;22.57
78859;BMP280;68210;52.032;4.634;2023-07-13T10:00:32;101461.84;;;22.63
78859;BMP280;68210;52.032;4.634;2023-07-13T10:02:34;101475.28;;;22.61
78859;BMP280;68210;52.032;4.634;2023-07-13T10:04:35;101477.22;;;22.97
78859;BMP280;68210;52.032;4.634;2023-07-13T10:06:35;101469.38;;;23.45
78859;BMP280;68210;52.032;4.634;2023-07-13T10:08:36;101474.75;;;23.78
78859;BMP280;68210;52.032;4.634;2023-07-13T10:10:36;101474.09;;;23.93
78859;BMP280;68210;52.032;4.634;2023-07-13T10:12:38;101473.50;;;24.24
78859;BMP280;68210;52.032;4.634;2023-07-13T10:14:39;101478.06;;;23.92
78859;BMP280;68210;52.032;4.634;2023-07-13T10:16:44;101459.22;;;23.61
78859;BMP280;68210;52.032;4.634;2023-07-13T10:18:58;101483.00;;;23.32
78859;BMP280;68210;52.032;4.634;2023-07-13T10:21:13;101485.22;;;23.18
78859;BMP280;68210;52.032;4.634;2023-07-13T10:23:21;101477.25;;;23.46
78859;BMP280;68210;52.032;4.634;2023-07-13T10:25:27;101479.69;;;23.67
78859;BMP280;68210;52.032;4.634;2023-07-13T10:27:33;101488.53;;;23.58
78859;BMP280;68210;52.032;4.634;2023-07-13T10:29:37;101485.25;;;23.41
78859;BMP280;68210;52.032;4.634;2023-07-13T10:31:38;101487.13;;;23.21
78859;BMP280;68210;52.032;4.634;2023-07-13T10:33:39;101495.63;;;23.33
78859;BMP280;68210;52.032;4.634;2023-07-13T10:35:42;101484.16;;;23.61
78859;BMP280;68210;52.032;4.634;2023-07-13T10:37:54;101474.13;;;23.89
78859;BMP280;68210;52.032;4.634;2023-07-13T10:39:58;101495.44;;;23.92
78859;BMP280;68210;52.032;4.634;2023-07-13T10:42:01;101497.28;;;23.79
78859;BMP280;68210;52.032;4.634;2023-07-13T10:44:04;101499.50;;;23.65
78859;BMP280;68210;52.032;4.634;2023-07-13T10:46:11;101498.09;;;23.54
78859;BMP280;68210;52.032;4.634;2023-07-13T10:48:14;101498.66;;;23.16
78859;BMP280;68210;52.032;4.634;2023-07-13T10:50:22;101509.03;;;22.79
78859;BMP280;68210;52.032;4.634;2023-07-13T10:52:55;101503.50;;;23.09
78859;BMP280;68210;52.032;4.634;2023-07-13T10:54:57;101511.91;;;23.28
78859;BMP280;68210;52.032;4.634;2023-07-13T10:57:19;101500.81;;;23.31
78859;BMP280;68210;52.032;4.634;2023-07-13T10:59:25;101497.69;;;23.29
78859;BMP280;68210;52.032;4.634;2023-07-13T11:01:54;101509.41;;;23.11
78859;BMP280;68210;52.032;4.634;2023-07-13T11:04:01;101512.06;;;23.44
78859;BMP280;68210;52.032;4.634;2023-07-13T11:06:16;101502.09;;;23.53
78859;BMP280;68210;52.032;4.634;2023-07-13T11:08:32;101501.41;;;23.68
78859;BMP280;68210;52.032;4.634;2023-07-13T11:12:53;101509.78;;;23.39
78859;BMP280;68210;52.032;4.634;2023-07-13T11:19:39;101515.41;;;23.58
78859;BMP280;68210;52.032;4.634;2023-07-13T11:24:12;101517.72;;;23.63
78859;BMP280;68210;52.032;4.634;2023-07-13T11:26:39;101503.91;;;23.85
78859;BMP280;68210;52.032;4.634;2023-07-13T11:28:42;101513.41;;;23.62
78859;BMP280;68210;52.032;4.634;2023-07-13T11:30:46;101512.22;;;23.85
78859;BMP280;68210;52.032;4.634;2023-07-13T11:33:02;101514.13;;;23.88
78859;BMP280;68210;52.032;4.634;2023-07-13T11:35:13;101516.94;;;24.08
78859;BMP280;68210;52.032;4.634;2023-07-13T11:37:16;101522.91;;;24.06
78859;BMP280;68210;52.032;4.634;2023-07-13T11:39:37;101510.91;;;24.12
78859;BMP280;68210;52.032;4.634;2023-07-13T11:41:44;101517.13;;;23.97
78859;BMP280;68210;52.032;4.634;2023-07-13T11:43:45;101519.16;;;23.71
78859;BMP280;68210;52.032;4.634;2023-07-13T11:45:50;101517.72;;;23.37
78859;BMP280;68210;52.032;4.634;2023-07-13T11:47:50;101527.16;;;23.39
78859;BMP280;68210;52.032;4.634;2023-07-13T11:49:55;101522.31;;;23.50
78859;BMP280;68210;52.032;4.634;2023-07-13T11:52:00;101522.38;;;23.43
78859;BMP280;68210;52.032;4.634;2023-07-13T11:54:06;101519.97;;;23.45
78859;BMP280;68210;52.032;4.634;2023-07-13T11:56:07;101510.09;;;23.44